createdAt,value
2019-02-23T00:02:03.202Z,-2.60
2019-02-23T00:07:18.655Z,-2.60
2019-02-23T00:09:45.269Z,-2.61
2019-02-23T00:12:11.844Z,-2.61
2019-02-23T00:14:38.441Z,-2.62
2019-02-23T00:17:05.008Z,-2.61
2019-02-23T00:19:31.602Z,-2.62
2019-02-23T00:21:58.188Z,-2.61
2019-02-23T00:24:24.788Z,-2.63
2019-02-23T00:26:51.363Z,-2.65
2019-02-23T00:29:17.980Z,-2.65
2019-02-23T00:31:44.567Z,-2.68
2019-02-23T00:34:11.182Z,-2.69
2019-02-23T00:36:37.762Z,-2.71
2019-02-23T00:39:04.383Z,-2.72
2019-02-23T00:41:30.965Z,-2.74
2019-02-23T00:43:57.605Z,-2.75
2019-02-23T00:46:24.187Z,-2.76
2019-02-23T00:48:50.779Z,-2.78
2019-02-23T00:51:17.348Z,-2.80
2019-02-23T00:53:43.966Z,-2.82
2019-02-23T00:56:10.536Z,-2.84
2019-02-23T00:58:37.167Z,-2.86
2019-02-23T01:01:03.760Z,-2.87
2019-02-23T01:03:30.336Z,-2.90
2019-02-23T01:05:56.935Z,-2.93
2019-02-23T01:08:23.580Z,-2.95
2019-02-23T01:10:57.682Z,-2.96
2019-02-23T01:13:18.459Z,-2.99
2019-02-23T01:15:45.031Z,-3.01
2019-02-23T01:18:11.601Z,-3.02
2019-02-23T01:20:38.191Z,-3.03
2019-02-23T01:23:04.764Z,-3.06
2019-02-23T01:25:31.333Z,-3.07
2019-02-23T01:27:57.909Z,-3.08
2019-02-23T01:30:25.996Z,-3.09
2019-02-23T01:32:52.707Z,-3.11
2019-02-23T01:35:19.286Z,-3.15
2019-02-23T01:37:45.872Z,-3.17
2019-02-23T01:40:12.440Z,-3.19
2019-02-23T01:42:39.019Z,-3.21
2019-02-23T01:45:05.593Z,-3.24
2019-02-23T01:47:32.156Z,-3.24
2019-02-23T01:49:59.358Z,-3.26
2019-02-23T01:52:26.106Z,-3.27
2019-02-23T01:54:52.679Z,-3.29
2019-02-23T01:57:19.337Z,-3.30
2019-02-23T01:59:45.918Z,-3.31
2019-02-23T02:02:12.495Z,-3.33
2019-02-23T02:04:39.059Z,-3.34
2019-02-23T02:07:05.634Z,-3.35
2019-02-23T02:09:32.212Z,-3.37
2019-02-23T02:11:58.872Z,-3.38
2019-02-23T02:14:25.573Z,-3.39
2019-02-23T02:16:52.197Z,-3.43
2019-02-23T02:19:18.811Z,-3.47
2019-02-23T02:21:45.377Z,-3.47
2019-02-23T02:24:11.980Z,-3.48
2019-02-23T02:26:38.554Z,-3.50
2019-02-23T02:29:05.171Z,-3.51
2019-02-23T02:31:31.751Z,-3.53
2019-02-23T02:33:58.324Z,-3.55
2019-02-23T02:36:24.901Z,-3.57
2019-02-23T02:38:51.506Z,-3.60
2019-02-23T02:41:18.124Z,-3.63
2019-02-23T02:43:44.687Z,-3.65
2019-02-23T02:46:11.295Z,-3.68
2019-02-23T02:48:37.866Z,-3.69
2019-02-23T02:51:04.475Z,-3.72
2019-02-23T02:53:31.050Z,-3.74
2019-02-23T02:55:57.658Z,-3.76
2019-02-23T02:58:24.240Z,-3.78
2019-02-23T03:00:50.825Z,-3.81
2019-02-23T03:03:17.406Z,-3.84
2019-02-23T03:05:44.029Z,-3.87
2019-02-23T03:08:10.599Z,-3.89
2019-02-23T03:10:37.214Z,-3.91
2019-02-23T03:13:03.840Z,-3.92
2019-02-23T03:15:30.489Z,-3.94
2019-02-23T03:17:57.065Z,-3.95
2019-02-23T03:20:35.931Z,-3.97
2019-02-23T03:22:52.021Z,-4.00
2019-02-23T03:25:18.634Z,-4.00
2019-02-23T03:27:45.203Z,-4.02
2019-02-23T03:30:11.851Z,-4.03
2019-02-23T03:32:38.675Z,-4.04
2019-02-23T03:35:05.299Z,-4.03
2019-02-23T03:37:31.860Z,-4.05
2019-02-23T03:39:58.471Z,-4.04
2019-02-23T03:42:25.038Z,-4.05
2019-02-23T03:44:51.681Z,-4.08
2019-02-23T03:47:18.267Z,-4.10
2019-02-23T03:49:44.976Z,-4.11
2019-02-23T03:52:11.545Z,-4.12
2019-02-23T03:54:38.163Z,-4.13
2019-02-23T03:57:04.732Z,-4.13
2019-02-23T03:59:31.297Z,-4.15
2019-02-23T04:01:57.878Z,-4.15
2019-02-23T04:04:24.444Z,-4.16
2019-02-23T04:06:51.014Z,-4.18
2019-02-23T04:09:17.586Z,-4.19
2019-02-23T04:11:44.166Z,-4.21
2019-02-23T04:14:10.751Z,-4.23
2019-02-23T04:16:37.317Z,-4.24
2019-02-23T04:19:03.899Z,-4.25
2019-02-23T04:21:30.468Z,-4.27
2019-02-23T04:23:57.038Z,-4.26
2019-02-23T04:26:23.606Z,-4.30
2019-02-23T04:28:50.186Z,-4.31
2019-02-23T04:31:16.752Z,-4.35
2019-02-23T04:33:43.327Z,-4.40
2019-02-23T04:36:09.976Z,-4.45
2019-02-23T04:38:36.560Z,-4.48
2019-02-23T04:41:03.135Z,-4.51
2019-02-23T04:43:29.714Z,-4.52
2019-02-23T04:45:56.282Z,-4.52
2019-02-23T04:48:22.879Z,-4.51
2019-02-23T04:50:49.614Z,-4.51
2019-02-23T04:53:16.175Z,-4.51
2019-02-23T04:55:42.748Z,-4.51
2019-02-23T04:58:09.325Z,-4.50
2019-02-23T05:00:35.902Z,-4.52
2019-02-23T05:03:02.476Z,-4.52
2019-02-23T05:05:29.051Z,-4.53
2019-02-23T05:07:55.626Z,-4.56
2019-02-23T05:10:22.208Z,-4.58
2019-02-23T05:12:48.778Z,-4.60
2019-02-23T05:15:15.355Z,-4.64
2019-02-23T05:17:41.936Z,-4.64
2019-02-23T05:20:08.524Z,-4.66
2019-02-23T05:22:35.101Z,-4.69
2019-02-23T05:25:01.707Z,-4.73
2019-02-23T05:27:28.361Z,-4.76
2019-02-23T05:29:54.931Z,-4.81
2019-02-23T05:32:21.622Z,-4.84
2019-02-23T05:34:48.304Z,-4.88
2019-02-23T05:37:14.976Z,-4.91
2019-02-23T05:39:41.558Z,-4.93
2019-02-23T05:42:08.160Z,-4.93
2019-02-23T05:44:34.740Z,-4.92
2019-02-23T05:47:01.398Z,-4.90
2019-02-23T05:49:27.976Z,-4.86
2019-02-23T05:51:54.587Z,-4.82
2019-02-23T05:54:21.209Z,-4.81
2019-02-23T05:56:47.873Z,-4.77
2019-02-23T05:59:14.443Z,-4.74
2019-02-23T06:01:41.060Z,-4.72
2019-02-23T06:04:07.635Z,-4.68
2019-02-23T06:06:34.234Z,-4.66
2019-02-23T06:09:00.816Z,-4.67
2019-02-23T06:11:27.471Z,-4.68
2019-02-23T06:13:54.042Z,-4.68
2019-02-23T06:16:20.649Z,-4.65
2019-02-23T06:18:47.213Z,-4.66
2019-02-23T06:21:13.846Z,-4.67
2019-02-23T06:23:40.420Z,-4.68
2019-02-23T06:26:07.046Z,-4.69
2019-02-23T06:28:33.671Z,-4.70
2019-02-23T06:31:00.272Z,-4.70
2019-02-23T06:33:26.851Z,-4.69
2019-02-23T06:35:53.445Z,-4.67
2019-02-23T06:38:20.024Z,-4.63
2019-02-23T06:40:46.647Z,-4.57
2019-02-23T06:43:13.264Z,-4.56
2019-02-23T06:45:39.899Z,-4.52
2019-02-23T06:48:06.473Z,-4.47
2019-02-23T06:50:33.047Z,-4.42
2019-02-23T06:52:59.627Z,-4.34
2019-02-23T06:55:26.203Z,-4.26
2019-02-23T06:57:52.777Z,-4.13
2019-02-23T07:00:19.359Z,-3.99
2019-02-23T07:02:45.940Z,-3.81
2019-02-23T07:05:12.531Z,-3.64
2019-02-23T07:07:39.125Z,-3.48
2019-02-23T07:10:05.698Z,-3.33
2019-02-23T07:12:32.276Z,-3.20
2019-02-23T07:14:58.847Z,-3.05
2019-02-23T07:17:25.435Z,-2.88
2019-02-23T07:19:52.003Z,-2.73
2019-02-23T07:22:18.624Z,-2.57
2019-02-23T07:24:45.232Z,-2.42
2019-02-23T07:27:11.808Z,-2.29
2019-02-23T07:29:38.382Z,-2.13
2019-02-23T07:32:04.960Z,-1.98
2019-02-23T07:34:31.555Z,-1.84
2019-02-23T07:36:58.194Z,-1.70
2019-02-23T07:39:24.854Z,-1.55
2019-02-23T07:41:51.464Z,-1.42
2019-02-23T07:44:18.074Z,-1.28
2019-02-23T07:46:44.649Z,-1.10
2019-02-23T07:49:11.222Z,-0.94
2019-02-23T07:51:37.810Z,-0.81
2019-02-23T07:54:04.379Z,-0.67
2019-02-23T07:56:30.996Z,-0.53
2019-02-23T07:58:57.574Z,-0.40
2019-02-23T08:01:24.192Z,-0.28
2019-02-23T08:03:50.775Z,-0.18
2019-02-23T08:06:17.397Z,-0.06
2019-02-23T08:08:43.963Z,0.07
2019-02-23T08:11:10.575Z,0.18
2019-02-23T08:13:37.153Z,0.29
2019-02-23T08:16:03.731Z,0.41
2019-02-23T08:18:30.302Z,0.55
2019-02-23T08:20:56.873Z,0.73
2019-02-23T08:23:23.449Z,0.90
2019-02-23T08:25:50.020Z,1.07
2019-02-23T08:28:16.599Z,1.23
2019-02-23T08:30:43.156Z,1.39
2019-02-23T08:33:09.742Z,1.53
2019-02-23T08:35:36.307Z,1.66
2019-02-23T08:38:02.884Z,1.76
2019-02-23T08:40:29.524Z,1.86
2019-02-23T08:42:56.134Z,1.98
2019-02-23T08:45:23.702Z,2.11
2019-02-23T08:47:50.307Z,2.22
2019-02-23T08:50:16.890Z,2.33
2019-02-23T08:52:49.247Z,2.45
2019-02-23T08:55:11.784Z,2.57
2019-02-23T08:57:38.390Z,2.70
2019-02-23T09:00:04.956Z,2.83
2019-02-23T09:02:31.564Z,2.97
2019-02-23T09:04:58.168Z,3.09
2019-02-23T09:07:24.816Z,3.23
2019-02-23T09:09:51.396Z,3.38
2019-02-23T09:12:18.013Z,3.53
2019-02-23T09:14:44.580Z,3.70
2019-02-23T09:17:11.225Z,3.85
2019-02-23T09:19:40.101Z,4.03
2019-02-23T09:22:06.779Z,4.22
2019-02-23T09:24:35.602Z,4.41
2019-02-23T09:27:02.204Z,4.59
2019-02-23T09:29:28.833Z,4.81
2019-02-23T09:31:55.435Z,5.05
2019-02-23T09:34:22.030Z,5.28
2019-02-23T09:36:48.671Z,5.45
2019-02-23T09:39:17.148Z,5.57
2019-02-23T09:41:43.736Z,5.72
2019-02-23T09:44:10.319Z,5.84
2019-02-23T09:46:36.921Z,6.02
2019-02-23T09:49:03.493Z,6.17
2019-02-23T09:51:30.078Z,6.25
2019-02-23T09:53:56.655Z,6.29
2019-02-23T09:56:23.225Z,6.28
2019-02-23T09:58:49.795Z,6.24
2019-02-23T10:01:16.380Z,6.25
2019-02-23T10:03:42.950Z,6.37
2019-02-23T10:06:09.513Z,6.49
2019-02-23T10:08:36.101Z,6.62
2019-02-23T10:11:02.678Z,6.77
2019-02-23T10:13:29.255Z,6.87
2019-02-23T10:15:55.838Z,6.95
2019-02-23T10:18:22.424Z,7.00
2019-02-23T10:20:48.983Z,6.95
2019-02-23T10:23:21.913Z,6.94
2019-02-23T10:25:43.856Z,7.04
2019-02-23T10:28:10.433Z,7.11
2019-02-23T10:30:37.026Z,7.11
2019-02-23T10:33:03.606Z,7.19
2019-02-23T10:35:30.181Z,7.35
2019-02-23T10:37:56.759Z,7.64
2019-02-23T10:40:23.327Z,8.02
2019-02-23T10:42:49.923Z,8.46
2019-02-23T10:45:16.503Z,8.92
2019-02-23T10:47:43.077Z,9.43
2019-02-23T10:50:09.653Z,9.93
2019-02-23T10:52:36.264Z,10.43
2019-02-23T10:55:02.835Z,10.88
2019-02-23T10:57:29.450Z,11.34
2019-02-23T10:59:56.030Z,11.79
2019-02-23T11:02:22.638Z,12.22
2019-02-23T11:04:49.219Z,12.59
2019-02-23T11:07:15.815Z,12.83
2019-02-23T11:09:42.384Z,13.00
2019-02-23T11:12:08.997Z,13.02
2019-02-23T11:14:35.572Z,12.94
2019-02-23T11:17:02.145Z,12.92
2019-02-23T11:19:28.718Z,12.93
2019-02-23T11:21:55.898Z,13.04
2019-02-23T11:24:22.472Z,13.19
2019-02-23T11:26:49.051Z,13.23
2019-02-23T11:29:15.629Z,13.22
2019-02-23T11:31:42.208Z,13.15
2019-02-23T11:34:08.789Z,13.03
2019-02-23T11:36:35.369Z,12.89
2019-02-23T11:39:01.937Z,12.69
2019-02-23T11:41:28.507Z,12.52
2019-02-23T11:43:55.113Z,12.33
2019-02-23T11:46:21.679Z,12.12
2019-02-23T11:48:48.254Z,11.83
2019-02-23T11:51:14.832Z,11.54
2019-02-23T11:53:41.409Z,11.28
2019-02-23T11:56:07.978Z,11.06
2019-02-23T11:58:34.559Z,10.89
2019-02-23T12:01:01.131Z,10.77
2019-02-23T12:03:27.715Z,10.62
2019-02-23T12:05:54.302Z,10.49
2019-02-23T12:08:20.885Z,10.40
2019-02-23T12:10:47.453Z,10.39
2019-02-23T12:13:14.093Z,10.40
2019-02-23T12:15:40.677Z,10.40
2019-02-23T12:18:07.258Z,10.40
2019-02-23T12:20:33.828Z,10.44
2019-02-23T12:23:00.428Z,10.45
2019-02-23T12:25:27.016Z,10.45
2019-02-23T12:27:53.625Z,10.43
2019-02-23T12:30:20.212Z,10.39
2019-02-23T12:32:46.817Z,10.36
2019-02-23T12:35:13.385Z,10.30
2019-02-23T12:37:39.958Z,10.11
2019-02-23T12:40:06.542Z,9.98
2019-02-23T12:42:33.112Z,9.98
2019-02-23T12:44:59.702Z,10.07
2019-02-23T12:47:26.275Z,10.23
2019-02-23T12:49:52.844Z,10.38
2019-02-23T12:52:19.419Z,10.53
2019-02-23T12:54:46.000Z,10.73
2019-02-23T12:57:12.570Z,11.17
2019-02-23T12:59:39.146Z,11.75
2019-02-23T13:02:05.727Z,12.19
2019-02-23T13:04:32.302Z,12.76
2019-02-23T13:06:58.877Z,14.58
2019-02-23T13:09:25.496Z,17.05
2019-02-23T13:11:52.083Z,18.54
2019-02-23T13:14:18.731Z,18.51
2019-02-23T13:16:45.299Z,18.63
2019-02-23T13:19:11.915Z,19.61
2019-02-23T13:21:38.482Z,21.12
2019-02-23T13:24:05.074Z,22.39
2019-02-23T13:26:31.657Z,23.08
2019-02-23T13:28:58.239Z,22.73
2019-02-23T13:31:24.825Z,21.51
2019-02-23T13:33:51.397Z,20.22
2019-02-23T13:36:17.995Z,19.14
2019-02-23T13:38:44.571Z,18.31
2019-02-23T13:41:11.169Z,18.41
2019-02-23T13:43:37.744Z,19.53
2019-02-23T13:46:04.359Z,20.62
2019-02-23T13:48:30.947Z,20.68
2019-02-23T13:50:57.525Z,20.77
2019-02-23T13:53:24.095Z,22.10
2019-02-23T13:55:50.677Z,23.74
2019-02-23T13:58:18.959Z,25.06
2019-02-23T14:00:45.631Z,26.20
2019-02-23T14:03:12.243Z,27.08
2019-02-23T14:05:38.830Z,27.46
2019-02-23T14:08:05.425Z,27.32
2019-02-23T14:10:32.006Z,27.01
2019-02-23T14:12:58.580Z,26.97
2019-02-23T14:15:25.161Z,27.00
2019-02-23T14:17:51.758Z,27.17
2019-02-23T14:20:18.333Z,27.16
2019-02-23T14:22:44.941Z,26.98
2019-02-23T14:25:11.510Z,26.38
2019-02-23T14:27:38.192Z,25.26
2019-02-23T14:30:04.863Z,23.99
2019-02-23T14:32:31.439Z,22.47
2019-02-23T14:34:58.016Z,20.95
2019-02-23T14:37:24.592Z,19.60
2019-02-23T14:39:51.218Z,18.31
2019-02-23T14:42:17.875Z,17.14
2019-02-23T14:44:44.561Z,15.98
2019-02-23T14:47:11.147Z,15.03
2019-02-23T14:49:37.728Z,14.29
2019-02-23T14:52:04.316Z,13.95
2019-02-23T14:54:30.902Z,13.53
2019-02-23T14:56:57.504Z,13.15
2019-02-23T14:59:24.191Z,13.12
2019-02-23T15:01:50.947Z,13.45
2019-02-23T15:04:18.115Z,13.50
2019-02-23T15:06:44.719Z,14.10
2019-02-23T15:09:11.314Z,15.65
2019-02-23T15:11:37.929Z,16.92
2019-02-23T15:14:04.501Z,18.16
2019-02-23T15:16:31.082Z,19.12
2019-02-23T15:18:57.666Z,19.81
2019-02-23T15:21:24.248Z,19.78
2019-02-23T15:23:50.833Z,19.57
2019-02-23T15:26:17.417Z,18.90
2019-02-23T15:28:43.990Z,17.96
2019-02-23T15:31:10.563Z,16.96
2019-02-23T15:33:37.168Z,15.97
2019-02-23T15:36:04.097Z,15.12
2019-02-23T15:38:30.751Z,14.50
2019-02-23T15:40:57.341Z,14.01
2019-02-23T15:43:24.020Z,13.56
2019-02-23T15:45:50.727Z,13.14
2019-02-23T15:48:17.370Z,12.73
2019-02-23T15:50:43.983Z,12.28
2019-02-23T15:53:10.633Z,11.83
2019-02-23T15:55:37.258Z,11.36
2019-02-23T15:58:03.832Z,10.85
2019-02-23T16:00:30.455Z,10.31
2019-02-23T16:02:57.030Z,9.75
2019-02-23T16:05:23.590Z,9.21
2019-02-23T16:07:50.162Z,8.68
2019-02-23T16:10:17.936Z,8.22
2019-02-23T16:12:45.475Z,7.78
2019-02-23T16:15:12.097Z,7.36
2019-02-23T16:17:38.718Z,7.00
2019-02-23T16:20:05.306Z,6.65
2019-02-23T16:22:31.880Z,6.32
2019-02-23T16:24:58.493Z,6.01
2019-02-23T16:27:25.065Z,5.73
2019-02-23T16:29:51.655Z,5.48
2019-02-23T16:32:18.224Z,5.25
2019-02-23T16:34:44.821Z,5.06
2019-02-23T16:37:11.394Z,4.90
2019-02-23T16:39:40.471Z,4.74
2019-02-23T16:42:06.368Z,4.62
2019-02-23T16:44:32.980Z,4.49
2019-02-23T16:46:59.594Z,4.37
2019-02-23T16:49:26.179Z,4.27
2019-02-23T16:51:52.765Z,4.18
2019-02-23T16:54:20.333Z,4.10
2019-02-23T16:56:46.909Z,4.01
2019-02-23T16:59:13.520Z,3.91
2019-02-23T17:01:40.096Z,3.82
2019-02-23T17:04:06.675Z,3.76
2019-02-23T17:06:33.384Z,3.69
2019-02-23T17:09:00.048Z,3.62
2019-02-23T17:11:26.657Z,3.56
2019-02-23T17:13:53.237Z,3.49
2019-02-23T17:16:19.809Z,3.39
2019-02-23T17:18:46.384Z,3.26
2019-02-23T17:21:13.002Z,3.13
2019-02-23T17:23:39.617Z,3.01
2019-02-23T17:26:06.233Z,2.93
2019-02-23T17:28:32.952Z,2.85
2019-02-23T17:30:59.531Z,2.76
2019-02-23T17:33:27.980Z,2.69
2019-02-23T17:35:54.474Z,2.59
2019-02-23T17:38:21.041Z,2.53
2019-02-23T17:43:31.903Z,2.36
2019-02-23T17:45:58.479Z,2.28
2019-02-23T17:48:25.173Z,2.21
2019-02-23T17:50:51.756Z,2.15
2019-02-23T17:53:18.323Z,2.11
2019-02-23T17:55:44.895Z,2.04
2019-02-23T17:58:11.496Z,1.97
2019-02-23T18:00:38.080Z,1.88
2019-02-23T18:03:04.648Z,1.83
2019-02-23T18:05:31.223Z,1.80
2019-02-23T18:07:57.838Z,1.79
2019-02-23T18:10:24.478Z,1.78
2019-02-23T18:12:51.104Z,1.74
2019-02-23T18:15:17.681Z,1.72
2019-02-23T18:17:44.257Z,1.73
2019-02-23T18:20:11.106Z,1.75
2019-02-23T18:22:38.188Z,1.78
2019-02-23T18:25:04.835Z,1.78
2019-02-23T18:27:31.491Z,1.78
2019-02-23T18:29:58.366Z,1.78
2019-02-23T18:32:25.454Z,1.76
2019-02-23T18:34:53.795Z,1.70
2019-02-23T18:37:20.427Z,1.60
2019-02-23T18:39:47.032Z,1.49
2019-02-23T18:42:13.606Z,1.39
2019-02-23T18:44:40.191Z,1.29
2019-02-23T18:47:06.813Z,1.18
2019-02-23T18:49:33.415Z,1.11
2019-02-23T18:52:00.043Z,1.06
2019-02-23T18:54:26.626Z,1.00
2019-02-23T18:56:53.191Z,0.92
2019-02-23T18:59:19.774Z,0.86
2019-02-23T19:01:46.390Z,0.83
2019-02-23T19:04:12.966Z,0.84
2019-02-23T19:06:39.577Z,0.85
2019-02-23T19:09:06.147Z,0.88
2019-02-23T19:11:32.762Z,0.89
2019-02-23T19:13:59.335Z,0.93
2019-02-23T19:16:25.925Z,0.98
2019-02-23T19:18:52.505Z,1.01
2019-02-23T19:21:19.086Z,1.03
2019-02-23T19:23:45.658Z,1.03
2019-02-23T19:26:12.263Z,1.04
2019-02-23T19:28:43.165Z,1.03
2019-02-23T19:31:07.195Z,1.00
2019-02-23T19:33:33.769Z,0.94
2019-02-23T19:36:00.378Z,0.89
2019-02-23T19:38:26.960Z,0.86
2019-02-23T19:40:53.559Z,0.84
2019-02-23T19:43:20.138Z,0.82
2019-02-23T19:45:46.730Z,0.81
2019-02-23T19:48:13.352Z,0.81
2019-02-23T19:50:40.418Z,0.82
2019-02-23T19:53:07.049Z,0.83
2019-02-23T19:55:33.815Z,0.82
2019-02-23T19:58:00.388Z,0.81
2019-02-23T20:00:27.067Z,0.81
2019-02-23T20:02:53.647Z,0.81
2019-02-23T20:05:20.228Z,0.83
2019-02-23T20:07:46.805Z,0.86
2019-02-23T20:10:13.383Z,0.89
2019-02-23T20:12:39.956Z,0.93
2019-02-23T20:15:06.538Z,0.97
2019-02-23T20:17:33.109Z,1.01
2019-02-23T20:19:59.676Z,1.07
2019-02-23T20:22:26.254Z,1.09
2019-02-23T20:24:52.830Z,1.12
2019-02-23T20:27:19.418Z,1.13
2019-02-23T20:29:46.102Z,1.14
2019-02-23T20:32:12.719Z,1.14
2019-02-23T20:34:39.328Z,1.14
2019-02-23T20:37:05.912Z,1.11
2019-02-23T20:39:32.572Z,1.08
2019-02-23T20:41:59.156Z,1.04
2019-02-23T20:44:25.728Z,1.03
2019-02-23T20:46:52.300Z,1.03
2019-02-23T20:49:18.907Z,1.01
2019-02-23T20:51:45.583Z,0.96
2019-02-23T20:54:12.157Z,0.91
2019-02-23T20:56:38.778Z,0.86
2019-02-23T20:59:05.394Z,0.80
2019-02-23T21:01:32.030Z,0.77
2019-02-23T21:03:58.660Z,0.73
2019-02-23T21:06:25.264Z,0.72
2019-02-23T21:08:51.836Z,0.70
2019-02-23T21:11:18.523Z,0.70
2019-02-23T21:13:45.131Z,0.70
2019-02-23T21:16:11.743Z,0.71
2019-02-23T21:18:38.330Z,0.75
2019-02-23T21:21:04.942Z,0.78
2019-02-23T21:23:31.515Z,0.79
2019-02-23T21:25:58.097Z,0.80
2019-02-23T21:28:24.670Z,0.79
2019-02-23T21:30:51.244Z,0.78
2019-02-23T21:33:17.817Z,0.74
2019-02-23T21:35:44.498Z,0.73
2019-02-23T21:38:11.081Z,0.72
2019-02-23T21:40:37.649Z,0.71
2019-02-23T21:43:04.228Z,0.73
2019-02-23T21:45:30.839Z,0.76
2019-02-23T21:47:57.461Z,0.78
2019-02-23T21:50:24.040Z,0.81
2019-02-23T21:52:50.611Z,0.80
2019-02-23T21:55:17.195Z,0.78
2019-02-23T21:57:43.787Z,0.72
2019-02-23T22:00:10.361Z,0.65
2019-02-23T22:02:37.004Z,0.59
2019-02-23T22:05:11.712Z,0.56
2019-02-23T22:07:31.915Z,0.56
2019-02-23T22:09:58.867Z,0.56
2019-02-23T22:12:25.533Z,0.56
2019-02-23T22:14:52.178Z,0.57
2019-02-23T22:17:19.303Z,0.54
2019-02-23T22:19:45.880Z,0.51
2019-02-23T22:22:12.473Z,0.50
2019-02-23T22:24:41.587Z,0.50
2019-02-23T22:27:08.937Z,0.48
2019-02-23T22:29:35.642Z,0.45
2019-02-23T22:32:02.227Z,0.44
2019-02-23T22:34:28.803Z,0.39
2019-02-23T22:36:55.406Z,0.33
2019-02-23T22:39:21.980Z,0.25
2019-02-23T22:41:49.845Z,0.17
2019-02-23T22:44:16.661Z,0.11
2019-02-23T22:46:43.244Z,0.08
2019-02-23T22:49:09.828Z,0.04
2019-02-23T22:51:36.416Z,0.02
2019-02-23T22:54:02.987Z,0.02
2019-02-23T22:56:29.567Z,-0.01
2019-02-23T22:58:56.145Z,-0.04
2019-02-23T23:01:22.827Z,-0.07
2019-02-23T23:03:49.419Z,-0.11
2019-02-23T23:06:15.985Z,-0.14
2019-02-23T23:08:42.575Z,-0.16
2019-02-23T23:11:09.152Z,-0.18
2019-02-23T23:13:35.743Z,-0.19
2019-02-23T23:16:02.317Z,-0.19
2019-02-23T23:18:28.890Z,-0.16
2019-02-23T23:20:55.477Z,-0.12
2019-02-23T23:23:22.057Z,-0.07
2019-02-23T23:25:48.624Z,-0.01
2019-02-23T23:28:15.200Z,0.04
2019-02-23T23:30:41.780Z,0.10
2019-02-23T23:33:08.385Z,0.15
2019-02-23T23:35:34.966Z,0.21
2019-02-23T23:38:01.567Z,0.25
2019-02-23T23:40:28.136Z,0.29
2019-02-23T23:42:58.153Z,0.33
2019-02-23T23:45:23.057Z,0.37
2019-02-23T23:47:49.651Z,0.37
2019-02-23T23:50:16.228Z,0.40
2019-02-23T23:52:42.839Z,0.39
2019-02-23T23:55:09.402Z,0.40
2019-02-23T23:57:36.024Z,0.42
